createdAt,value
2023-04-20T00:04:38.250Z,23.30
2023-04-20T00:09:42.060Z,21.10
2023-04-20T00:14:45.977Z,26.80
2023-04-20T00:19:50.377Z,26.80
2023-04-20T00:24:54.190Z,25.60
2023-04-20T00:29:58.103Z,23.60
2023-04-20T00:35:01.846Z,25.00
2023-04-20T00:40:07.161Z,23.70
2023-04-20T00:45:11.056Z,23.20
2023-04-20T00:50:16.111Z,21.50
2023-04-20T00:55:21.208Z,22.20
2023-04-20T01:00:25.970Z,20.50
2023-04-20T01:05:29.807Z,19.70
2023-04-20T01:10:33.668Z,21.50
2023-04-20T01:15:37.725Z,20.60
2023-04-20T01:20:41.737Z,19.90
2023-04-20T01:25:45.617Z,19.40
2023-04-20T01:30:51.831Z,18.70
2023-04-20T01:35:55.600Z,17.50
2023-04-20T01:40:59.893Z,16.70
2023-04-20T01:46:05.418Z,16.20
2023-04-20T01:51:10.009Z,17.80
2023-04-20T01:56:13.720Z,16.10
2023-04-20T02:01:17.597Z,17.70
2023-04-20T02:06:21.386Z,19.30
2023-04-20T02:11:25.620Z,17.50
2023-04-20T02:16:29.576Z,18.30
2023-04-20T02:21:33.307Z,19.30
2023-04-20T02:26:37.108Z,19.30
2023-04-20T02:31:40.902Z,21.70
2023-04-20T02:36:44.986Z,21.90
2023-04-20T02:41:49.471Z,24.70
2023-04-20T02:46:54.168Z,21.20
2023-04-20T02:51:58.585Z,23.80
2023-04-20T02:57:03.892Z,23.80
2023-04-20T03:02:07.806Z,23.50
2023-04-20T03:07:13.059Z,23.00
2023-04-20T03:12:19.036Z,21.20
2023-04-20T03:17:31.894Z,22.00
2023-04-20T03:22:36.545Z,20.70
2023-04-20T03:27:40.300Z,22.90
2023-04-20T03:32:47.471Z,22.70
2023-04-20T03:37:51.400Z,23.20
2023-04-20T03:42:55.165Z,24.90
2023-04-20T03:47:58.944Z,23.20
2023-04-20T03:53:03.309Z,22.80
2023-04-20T03:58:07.843Z,20.90
2023-04-20T04:03:22.423Z,21.60
2023-04-20T04:08:27.221Z,22.20
2023-04-20T04:13:33.876Z,22.00
2023-04-20T04:18:48.522Z,24.60
2023-04-20T04:23:54.529Z,22.50
2023-04-20T04:29:20.997Z,23.10
2023-04-20T04:34:30.231Z,22.50
2023-04-20T04:39:34.557Z,21.90
2023-04-20T04:44:45.480Z,23.70
2023-04-20T04:49:53.315Z,23.30
2023-04-20T04:54:57.236Z,26.10
2023-04-20T05:00:00.889Z,25.20
2023-04-20T05:05:04.931Z,29.00
2023-04-20T05:10:09.106Z,26.00
2023-04-20T05:15:12.808Z,25.80
2023-04-20T05:20:16.506Z,28.70
2023-04-20T05:25:20.518Z,30.40
2023-04-20T05:30:24.386Z,27.40
2023-04-20T05:35:28.184Z,30.00
2023-04-20T05:40:32.559Z,31.60
2023-04-20T05:45:36.398Z,30.40
2023-04-20T05:50:40.161Z,30.60
2023-04-20T05:55:43.842Z,30.50
2023-04-20T06:00:48.010Z,30.20
2023-04-20T06:05:51.940Z,29.80
2023-04-20T06:10:59.940Z,29.10
2023-04-20T06:16:03.870Z,29.60
2023-04-20T06:21:11.547Z,32.00
2023-04-20T06:26:15.329Z,28.00
2023-04-20T06:31:22.303Z,29.90
2023-04-20T06:36:26.075Z,28.90
2023-04-20T06:41:29.696Z,29.50
2023-04-20T06:46:33.386Z,29.60
2023-04-20T06:51:37.098Z,29.70
2023-04-20T06:56:56.924Z,29.10
2023-04-20T07:02:00.686Z,30.60
2023-04-20T07:07:04.558Z,27.80
2023-04-20T07:12:08.699Z,29.60
2023-04-20T07:17:12.366Z,27.30
2023-04-20T07:22:16.158Z,25.80
2023-04-20T07:27:19.886Z,29.30
2023-04-20T07:32:24.010Z,28.30
2023-04-20T07:37:27.997Z,28.90
2023-04-20T07:42:34.160Z,26.20
2023-04-20T07:47:38.335Z,27.90
2023-04-20T07:52:42.234Z,28.20
2023-04-20T07:57:46.422Z,26.00
2023-04-20T08:02:50.361Z,25.70
2023-04-20T08:07:54.224Z,26.00
2023-04-20T08:12:57.941Z,24.40
2023-04-20T08:18:01.547Z,25.90
2023-04-20T08:23:05.155Z,28.30
2023-04-20T08:28:12.237Z,24.80
2023-04-20T08:33:23.407Z,24.50
2023-04-20T08:38:33.953Z,27.90
2023-04-20T08:43:38.136Z,27.40
2023-04-20T08:48:42.644Z,25.60
2023-04-20T08:53:46.367Z,27.30
2023-04-20T08:58:50.156Z,28.10
2023-04-20T09:03:53.891Z,27.70
2023-04-20T09:08:57.805Z,31.40
2023-04-20T09:14:10.607Z,28.70
2023-04-20T09:19:14.992Z,28.50
2023-04-20T09:24:23.704Z,27.30
2023-04-20T09:29:28.245Z,28.00
2023-04-20T09:34:32.193Z,28.00
2023-04-20T09:39:37.693Z,27.90
2023-04-20T09:44:41.714Z,26.20
2023-04-20T09:49:47.580Z,27.50
2023-04-20T09:54:52.048Z,25.40
2023-04-20T09:59:57.800Z,25.30
2023-04-20T10:05:02.536Z,26.60
2023-04-20T10:10:12.761Z,24.40
2023-04-20T10:15:17.447Z,22.50
2023-04-20T10:20:25.725Z,23.80
2023-04-20T10:25:29.470Z,25.20
2023-04-20T10:30:34.438Z,24.80
2023-04-20T10:35:44.540Z,23.40
2023-04-20T10:40:49.554Z,23.30
2023-04-20T10:45:53.794Z,23.90
2023-04-20T10:50:58.490Z,21.70
2023-04-20T10:56:02.499Z,23.30
2023-04-20T11:01:06.445Z,22.40
2023-04-20T11:06:10.352Z,25.50
2023-04-20T11:11:25.820Z,24.40
2023-04-20T11:16:44.334Z,24.20
2023-04-20T11:21:53.469Z,24.50
2023-04-20T11:26:58.474Z,23.00
2023-04-20T11:32:05.009Z,22.00
2023-04-20T11:37:10.933Z,22.20
2023-04-20T11:42:14.855Z,23.00
2023-04-20T11:47:18.586Z,24.00
2023-04-20T11:52:22.582Z,21.00
2023-04-20T11:57:26.584Z,20.80
2023-04-20T12:02:30.496Z,21.30
2023-04-20T12:07:34.477Z,20.80
2023-04-20T12:12:38.786Z,21.00
2023-04-20T12:17:42.480Z,16.20
2023-04-20T12:22:46.252Z,19.40
2023-04-20T12:27:50.127Z,18.90
2023-04-20T12:32:53.890Z,17.60
2023-04-20T12:37:57.694Z,14.60
2023-04-20T12:43:01.442Z,15.40
2023-04-20T12:48:05.547Z,15.90
2023-04-20T12:53:09.208Z,16.20
2023-04-20T12:58:13.063Z,15.00
2023-04-20T13:03:17.417Z,13.90
2023-04-20T13:08:22.132Z,12.10
2023-04-20T13:13:26.017Z,13.30
2023-04-20T13:18:29.790Z,12.30
2023-04-20T13:23:33.593Z,10.60
2023-04-20T13:28:38.130Z,9.70
2023-04-20T13:33:41.788Z,8.80
2023-04-20T13:38:45.744Z,10.20
2023-04-20T13:43:49.880Z,9.50
2023-04-20T13:48:53.557Z,8.30
2023-04-20T13:53:57.276Z,7.20
2023-04-20T13:59:04.392Z,8.10
2023-04-20T14:04:10.496Z,7.60
2023-04-20T14:09:14.362Z,7.30
2023-04-20T14:14:18.339Z,7.30
2023-04-20T14:19:22.434Z,6.20
2023-04-20T14:24:26.391Z,5.60
2023-04-20T14:29:30.122Z,5.20
2023-04-20T14:34:34.050Z,5.20
2023-04-20T14:39:37.848Z,4.40
2023-04-20T14:44:41.739Z,3.60
2023-04-20T14:49:45.564Z,4.00
2023-04-20T14:54:49.346Z,3.90
2023-04-20T14:59:53.256Z,5.00
2023-04-20T15:04:58.491Z,6.10
2023-04-20T15:10:02.579Z,5.80
2023-04-20T15:15:07.758Z,4.50
2023-04-20T15:20:12.351Z,4.50
2023-04-20T15:25:16.079Z,5.50
2023-04-20T15:30:21.670Z,4.80
2023-04-20T15:35:25.475Z,6.40
2023-04-20T15:40:29.582Z,5.60
2023-04-20T15:45:33.416Z,5.20
2023-04-20T15:50:37.831Z,6.60
2023-04-20T15:55:41.621Z,5.70
2023-04-20T16:00:45.310Z,6.60
2023-04-20T16:05:50.353Z,6.20
2023-04-20T16:10:55.328Z,6.70
2023-04-20T16:15:59.344Z,7.20
2023-04-20T16:21:03.778Z,5.40
2023-04-20T16:26:07.775Z,6.20
2023-04-20T16:31:12.041Z,6.20
2023-04-20T16:36:16.959Z,5.80
2023-04-20T16:41:21.340Z,6.50
2023-04-20T16:46:25.455Z,7.70
2023-04-20T16:51:29.710Z,8.00
2023-04-20T16:56:33.326Z,7.50
2023-04-20T17:01:37.285Z,6.20
2023-04-20T17:06:41.320Z,5.60
2023-04-20T17:11:45.277Z,6.70
2023-04-20T17:16:51.209Z,6.50
2023-04-20T17:21:55.340Z,6.40
2023-04-20T17:26:59.060Z,6.50
2023-04-20T17:32:03.462Z,6.40
2023-04-20T17:37:08.104Z,7.70
2023-04-20T17:42:13.066Z,8.40
2023-04-20T17:47:16.999Z,6.80
2023-04-20T17:52:25.543Z,6.40
2023-04-20T17:57:29.887Z,7.00
2023-04-20T18:02:34.342Z,6.40
2023-04-20T18:07:41.815Z,6.20
2023-04-20T18:12:47.064Z,6.80
2023-04-20T18:17:52.780Z,10.80
2023-04-20T18:23:00.156Z,11.30
2023-04-20T18:28:06.851Z,11.80
2023-04-20T18:33:17.017Z,12.70
2023-04-20T18:38:27.831Z,12.70
2023-04-20T18:43:32.722Z,16.60
2023-04-20T18:48:37.818Z,13.20
2023-04-20T18:53:44.208Z,17.50
2023-04-20T18:58:51.841Z,31.80
2023-04-20T19:03:58.243Z,25.90
2023-04-20T19:09:04.449Z,20.50
2023-04-20T19:14:11.272Z,50.60
2023-04-20T19:19:17.879Z,43.20
2023-04-20T19:24:23.541Z,19.40
2023-04-20T19:29:30.132Z,28.20
2023-04-20T19:34:35.038Z,28.50
2023-04-20T19:39:47.610Z,67.80
2023-04-20T19:44:53.883Z,41.40
2023-04-20T19:49:58.836Z,31.10
2023-04-20T19:55:05.639Z,19.40
2023-04-20T20:00:15.603Z,9.50
2023-04-20T20:05:23.844Z,10.80
2023-04-20T20:10:31.147Z,10.50
2023-04-20T20:15:37.977Z,10.30
2023-04-20T20:20:43.160Z,8.20
2023-04-20T20:25:46.943Z,10.60
2023-04-20T20:30:51.270Z,11.10
2023-04-20T20:35:56.427Z,11.90
2023-04-20T20:41:03.734Z,10.40
2023-04-20T20:46:09.684Z,9.60
2023-04-20T20:51:14.052Z,9.70
2023-04-20T20:56:17.822Z,11.00
2023-04-20T21:01:21.818Z,10.20
2023-04-20T21:06:25.715Z,9.80
2023-04-20T21:11:29.450Z,10.40
2023-04-20T21:16:33.790Z,10.00
2023-04-20T21:21:38.394Z,10.30
2023-04-20T21:26:42.281Z,11.30
2023-04-20T21:31:46.020Z,10.90
2023-04-20T21:36:49.777Z,14.40
2023-04-20T21:41:53.530Z,15.30
2023-04-20T21:46:57.674Z,16.20
2023-04-20T21:52:01.427Z,13.10
2023-04-20T21:57:05.372Z,11.70
2023-04-20T22:02:09.087Z,12.10
2023-04-20T22:07:12.851Z,11.20
2023-04-20T22:12:18.123Z,11.10
2023-04-20T22:17:24.060Z,11.70
2023-04-20T22:22:27.713Z,12.60
2023-04-20T22:27:33.814Z,10.70
2023-04-20T22:32:39.032Z,13.00
2023-04-20T22:37:43.004Z,12.80
2023-04-20T22:42:46.665Z,11.20
2023-04-20T22:47:50.392Z,11.60
2023-04-20T22:52:54.287Z,10.90
2023-04-20T22:57:57.896Z,10.00
2023-04-20T23:03:01.788Z,10.20
2023-04-20T23:08:07.030Z,11.20
2023-04-20T23:13:16.957Z,10.90
2023-04-20T23:18:20.676Z,11.40
2023-04-20T23:23:24.266Z,11.30
2023-04-20T23:28:28.065Z,10.60
2023-04-20T23:33:31.800Z,10.30
2023-04-20T23:38:35.501Z,11.50
2023-04-20T23:43:39.867Z,11.20
2023-04-20T23:48:43.615Z,11.20
2023-04-20T23:53:47.343Z,11.90
2023-04-20T23:58:51.363Z,10.80
